sensor_id;sensor_type;location;lat;lon;timestamp;temperature;humidity
2913;DHT22;1466;48.778;9.166;2022-12-07T00:01:08;6.40;99.90
2913;DHT22;1466;48.778;9.166;2022-12-07T00:03:34;6.40;99.90
2913;DHT22;1466;48.778;9.166;2022-12-07T00:06:01;6.40;99.90
2913;DHT22;1466;48.778;9.166;2022-12-07T00:08:27;6.40;99.90
2913;DHT22;1466;48.778;9.166;2022-12-07T00:10:53;6.40;99.90
2913;DHT22;1466;48.778;9.166;2022-12-07T00:13:18;6.40;99.90
2913;DHT22;1466;48.778;9.166;2022-12-07T00:15:44;6.40;99.90
2913;DHT22;1466;48.778;9.166;2022-12-07T00:18:10;6.50;99.90
2913;DHT22;1466;48.778;9.166;2022-12-07T00:20:36;6.40;99.90
2913;DHT22;1466;48.778;9.166;2022-12-07T00:23:02;6.40;99.90
2913;DHT22;1466;48.778;9.166;2022-12-07T00:25:27;6.30;99.90
2913;DHT22;1466;48.778;9.166;2022-12-07T00:27:53;6.20;99.90
2913;DHT22;1466;48.778;9.166;2022-12-07T00:30:22;6.00;99.90
2913;DHT22;1466;48.778;9.166;2022-12-07T00:32:48;6.00;99.90
2913;DHT22;1466;48.778;9.166;2022-12-07T00:35:13;6.00;99.90
2913;DHT22;1466;48.778;9.166;2022-12-07T00:37:39;6.00;99.90
2913;DHT22;1466;48.778;9.166;2022-12-07T00:40:05;6.00;99.90
2913;DHT22;1466;48.778;9.166;2022-12-07T00:42:31;6.00;99.90
2913;DHT22;1466;48.778;9.166;2022-12-07T00:44:57;6.10;99.90
2913;DHT22;1466;48.778;9.166;2022-12-07T00:47:22;6.10;99.90
2913;DHT22;1466;48.778;9.166;2022-12-07T00:49:48;6.20;99.90
2913;DHT22;1466;48.778;9.166;2022-12-07T00:52:13;6.10;99.90
2913;DHT22;1466;48.778;9.166;2022-12-07T00:54:40;6.00;99.90
2913;DHT22;1466;48.778;9.166;2022-12-07T00:57:05;6.10;99.90
2913;DHT22;1466;48.778;9.166;2022-12-07T00:59:31;6.20;99.90
2913;DHT22;1466;48.778;9.166;2022-12-07T01:01:56;6.20;99.90
2913;DHT22;1466;48.778;9.166;2022-12-07T01:04:22;6.20;99.90
2913;DHT22;1466;48.778;9.166;2022-12-07T01:06:47;6.20;99.90
2913;DHT22;1466;48.778;9.166;2022-12-07T01:09:13;6.20;99.90
2913;DHT22;1466;48.778;9.166;2022-12-07T01:11:39;6.30;99.90
2913;DHT22;1466;48.778;9.166;2022-12-07T01:14:04;6.20;99.90
2913;DHT22;1466;48.778;9.166;2022-12-07T01:16:32;6.10;99.90
2913;DHT22;1466;48.778;9.166;2022-12-07T01:18:59;6.00;99.90
2913;DHT22;1466;48.778;9.166;2022-12-07T01:21:30;6.00;99.90
2913;DHT22;1466;48.778;9.166;2022-12-07T01:23:59;6.00;99.90
2913;DHT22;1466;48.778;9.166;2022-12-07T01:26:25;6.00;99.90
2913;DHT22;1466;48.778;9.166;2022-12-07T01:28:52;6.00;99.90
2913;DHT22;1466;48.778;9.166;2022-12-07T01:31:22;6.00;99.90
2913;DHT22;1466;48.778;9.166;2022-12-07T01:33:51;6.00;99.90
2913;DHT22;1466;48.778;9.166;2022-12-07T01:36:28;6.10;99.90
2913;DHT22;1466;48.778;9.166;2022-12-07T01:38:56;6.00;99.90
2913;DHT22;1466;48.778;9.166;2022-12-07T01:41:23;6.00;99.90
2913;DHT22;1466;48.778;9.166;2022-12-07T01:44:31;6.10;99.90
2913;DHT22;1466;48.778;9.166;2022-12-07T01:47:02;6.10;99.90
2913;DHT22;1466;48.778;9.166;2022-12-07T01:49:51;6.00;99.90
2913;DHT22;1466;48.778;9.166;2022-12-07T01:52:28;6.00;99.90
2913;DHT22;1466;48.778;9.166;2022-12-07T01:54:59;6.10;99.90
2913;DHT22;1466;48.778;9.166;2022-12-07T01:57:25;6.10;99.90
2913;DHT22;1466;48.778;9.166;2022-12-07T01:59:53;6.20;99.90
2913;DHT22;1466;48.778;9.166;2022-12-07T02:02:29;6.30;99.90
2913;DHT22;1466;48.778;9.166;2022-12-07T02:04:57;6.30;99.90
2913;DHT22;1466;48.778;9.166;2022-12-07T02:07:24;6.40;99.90
2913;DHT22;1466;48.778;9.166;2022-12-07T02:09:50;6.40;99.90
2913;DHT22;1466;48.778;9.166;2022-12-07T02:12:16;6.40;99.90
2913;DHT22;1466;48.778;9.166;2022-12-07T02:14:42;6.40;99.90
2913;DHT22;1466;48.778;9.166;2022-12-07T02:17:11;6.50;99.90
2913;DHT22;1466;48.778;9.166;2022-12-07T02:28:31;6.40;99.90
2913;DHT22;1466;48.778;9.166;2022-12-07T02:31:13;6.40;99.90
2913;DHT22;1466;48.778;9.166;2022-12-07T02:37:08;6.30;99.90
2913;DHT22;1466;48.778;9.166;2022-12-07T02:39:46;6.40;99.90
2913;DHT22;1466;48.778;9.166;2022-12-07T02:42:25;6.30;99.90
2913;DHT22;1466;48.778;9.166;2022-12-07T02:44:54;6.20;99.90
2913;DHT22;1466;48.778;9.166;2022-12-07T02:47:20;6.30;99.90
2913;DHT22;1466;48.778;9.166;2022-12-07T02:49:46;6.30;99.90
2913;DHT22;1466;48.778;9.166;2022-12-07T02:52:12;6.30;99.90
2913;DHT22;1466;48.778;9.166;2022-12-07T02:54:38;6.30;99.90
2913;DHT22;1466;48.778;9.166;2022-12-07T03:08:02;6.50;99.90
2913;DHT22;1466;48.778;9.166;2022-12-07T03:10:50;6.50;99.90
2913;DHT22;1466;48.778;9.166;2022-12-07T03:15:58;6.50;99.90
2913;DHT22;1466;48.778;9.166;2022-12-07T03:18:30;6.50;99.90
2913;DHT22;1466;48.778;9.166;2022-12-07T03:21:00;6.50;99.90
2913;DHT22;1466;48.778;9.166;2022-12-07T03:23:28;6.50;99.90
2913;DHT22;1466;48.778;9.166;2022-12-07T03:26:00;6.40;99.90
2913;DHT22;1466;48.778;9.166;2022-12-07T03:28:33;6.40;99.90
2913;DHT22;1466;48.778;9.166;2022-12-07T03:31:09;6.50;99.90
2913;DHT22;1466;48.778;9.166;2022-12-07T03:36:23;6.50;99.90
2913;DHT22;1466;48.778;9.166;2022-12-07T03:39:09;6.50;99.90
2913;DHT22;1466;48.778;9.166;2022-12-07T03:41:38;6.50;99.90
2913;DHT22;1466;48.778;9.166;2022-12-07T03:44:05;6.50;99.90
2913;DHT22;1466;48.778;9.166;2022-12-07T03:46:44;6.50;99.90
2913;DHT22;1466;48.778;9.166;2022-12-07T03:49:40;6.50;99.90
2913;DHT22;1466;48.778;9.166;2022-12-07T03:52:16;6.50;99.90
2913;DHT22;1466;48.778;9.166;2022-12-07T03:57:37;6.50;99.90
2913;DHT22;1466;48.778;9.166;2022-12-07T04:00:07;6.40;99.90
2913;DHT22;1466;48.778;9.166;2022-12-07T04:02:33;6.50;99.90
2913;DHT22;1466;48.778;9.166;2022-12-07T04:05:00;6.40;99.90
2913;DHT22;1466;48.778;9.166;2022-12-07T04:07:26;6.50;99.90
2913;DHT22;1466;48.778;9.166;2022-12-07T04:09:52;6.50;99.90
2913;DHT22;1466;48.778;9.166;2022-12-07T04:12:33;6.40;99.90
2913;DHT22;1466;48.778;9.166;2022-12-07T04:17:58;6.40;99.90
2913;DHT22;1466;48.778;9.166;2022-12-07T04:20:24;6.40;99.90
2913;DHT22;1466;48.778;9.166;2022-12-07T04:22:50;6.30;99.90
2913;DHT22;1466;48.778;9.166;2022-12-07T04:25:15;6.30;99.90
2913;DHT22;1466;48.778;9.166;2022-12-07T04:27:41;6.20;99.90
2913;DHT22;1466;48.778;9.166;2022-12-07T04:30:07;6.20;99.90
2913;DHT22;1466;48.778;9.166;2022-12-07T04:32:33;6.20;99.90
2913;DHT22;1466;48.778;9.166;2022-12-07T04:34:58;6.20;99.90
2913;DHT22;1466;48.778;9.166;2022-12-07T04:37:24;6.20;99.90
2913;DHT22;1466;48.778;9.166;2022-12-07T04:39:50;6.10;99.90
2913;DHT22;1466;48.778;9.166;2022-12-07T04:42:16;6.10;99.90
2913;DHT22;1466;48.778;9.166;2022-12-07T04:44:41;6.10;99.90
2913;DHT22;1466;48.778;9.166;2022-12-07T04:47:07;6.10;99.90
2913;DHT22;1466;48.778;9.166;2022-12-07T04:49:33;6.10;99.90
2913;DHT22;1466;48.778;9.166;2022-12-07T04:51:58;6.20;99.90
2913;DHT22;1466;48.778;9.166;2022-12-07T04:54:24;6.20;99.90
2913;DHT22;1466;48.778;9.166;2022-12-07T04:56:49;6.30;99.90
2913;DHT22;1466;48.778;9.166;2022-12-07T04:59:16;6.40;99.90
2913;DHT22;1466;48.778;9.166;2022-12-07T05:01:42;6.40;99.90
2913;DHT22;1466;48.778;9.166;2022-12-07T05:04:08;6.50;99.90
2913;DHT22;1466;48.778;9.166;2022-12-07T05:06:34;6.50;99.90
2913;DHT22;1466;48.778;9.166;2022-12-07T05:08:59;6.50;99.90
2913;DHT22;1466;48.778;9.166;2022-12-07T05:11:25;6.50;99.90
2913;DHT22;1466;48.778;9.166;2022-12-07T05:14:05;6.60;99.90
2913;DHT22;1466;48.778;9.166;2022-12-07T05:16:31;6.50;99.90
2913;DHT22;1466;48.778;9.166;2022-12-07T05:18:57;6.30;99.90
2913;DHT22;1466;48.778;9.166;2022-12-07T05:21:23;6.20;99.90
2913;DHT22;1466;48.778;9.166;2022-12-07T05:23:49;6.10;99.90
2913;DHT22;1466;48.778;9.166;2022-12-07T05:26:15;6.10;99.90
2913;DHT22;1466;48.778;9.166;2022-12-07T05:28:40;6.10;99.90
2913;DHT22;1466;48.778;9.166;2022-12-07T05:31:06;6.10;99.90
2913;DHT22;1466;48.778;9.166;2022-12-07T05:33:32;6.10;99.90
2913;DHT22;1466;48.778;9.166;2022-12-07T05:35:57;6.00;99.90
2913;DHT22;1466;48.778;9.166;2022-12-07T05:38:23;5.80;99.90
2913;DHT22;1466;48.778;9.166;2022-12-07T05:40:50;5.80;99.90
2913;DHT22;1466;48.778;9.166;2022-12-07T05:43:15;5.80;99.90
2913;DHT22;1466;48.778;9.166;2022-12-07T05:45:41;5.80;99.90
2913;DHT22;1466;48.778;9.166;2022-12-07T05:48:06;5.80;99.90
2913;DHT22;1466;48.778;9.166;2022-12-07T05:50:32;5.80;99.90
2913;DHT22;1466;48.778;9.166;2022-12-07T05:52:58;5.90;99.90
2913;DHT22;1466;48.778;9.166;2022-12-07T05:55:23;5.90;99.90
2913;DHT22;1466;48.778;9.166;2022-12-07T05:57:49;5.90;99.90
2913;DHT22;1466;48.778;9.166;2022-12-07T06:00:33;5.80;99.90
2913;DHT22;1466;48.778;9.166;2022-12-07T06:02:58;5.80;99.90
2913;DHT22;1466;48.778;9.166;2022-12-07T06:05:24;5.80;99.90
2913;DHT22;1466;48.778;9.166;2022-12-07T06:07:49;5.90;99.90
2913;DHT22;1466;48.778;9.166;2022-12-07T06:10:15;5.90;99.90
2913;DHT22;1466;48.778;9.166;2022-12-07T06:12:41;6.00;99.90
2913;DHT22;1466;48.778;9.166;2022-12-07T06:15:09;6.00;99.90
2913;DHT22;1466;48.778;9.166;2022-12-07T06:17:35;6.10;99.90
2913;DHT22;1466;48.778;9.166;2022-12-07T06:20:01;6.10;99.90
2913;DHT22;1466;48.778;9.166;2022-12-07T06:22:26;6.20;99.90
2913;DHT22;1466;48.778;9.166;2022-12-07T06:24:52;6.20;99.90
2913;DHT22;1466;48.778;9.166;2022-12-07T06:27:17;6.20;99.90
2913;DHT22;1466;48.778;9.166;2022-12-07T06:29:43;6.10;99.90
2913;DHT22;1466;48.778;9.166;2022-12-07T06:32:09;6.10;99.90
2913;DHT22;1466;48.778;9.166;2022-12-07T06:34:34;6.00;99.90
2913;DHT22;1466;48.778;9.166;2022-12-07T06:37:00;6.10;99.90
2913;DHT22;1466;48.778;9.166;2022-12-07T06:39:27;6.10;99.90
2913;DHT22;1466;48.778;9.166;2022-12-07T06:41:53;6.20;99.90
2913;DHT22;1466;48.778;9.166;2022-12-07T06:44:20;6.20;99.90
2913;DHT22;1466;48.778;9.166;2022-12-07T06:46:46;6.30;99.90
2913;DHT22;1466;48.778;9.166;2022-12-07T06:49:11;6.30;99.90
2913;DHT22;1466;48.778;9.166;2022-12-07T06:51:37;6.30;99.90
2913;DHT22;1466;48.778;9.166;2022-12-07T06:54:10;6.30;99.90
2913;DHT22;1466;48.778;9.166;2022-12-07T06:56:36;6.30;99.90
2913;DHT22;1466;48.778;9.166;2022-12-07T06:59:03;6.30;99.90
2913;DHT22;1466;48.778;9.166;2022-12-07T07:01:28;6.30;99.90
2913;DHT22;1466;48.778;9.166;2022-12-07T07:03:54;6.20;99.90
2913;DHT22;1466;48.778;9.166;2022-12-07T07:06:20;6.20;99.90
2913;DHT22;1466;48.778;9.166;2022-12-07T07:08:45;6.00;99.90
2913;DHT22;1466;48.778;9.166;2022-12-07T07:11:11;6.00;99.90
2913;DHT22;1466;48.778;9.166;2022-12-07T07:13:37;5.90;99.90
2913;DHT22;1466;48.778;9.166;2022-12-07T07:16:03;5.90;99.90
2913;DHT22;1466;48.778;9.166;2022-12-07T07:18:29;5.90;99.90
2913;DHT22;1466;48.778;9.166;2022-12-07T07:20:54;6.00;99.90
2913;DHT22;1466;48.778;9.166;2022-12-07T07:23:21;6.00;99.90
2913;DHT22;1466;48.778;9.166;2022-12-07T07:25:47;6.10;99.90
2913;DHT22;1466;48.778;9.166;2022-12-07T07:28:14;6.10;99.90
2913;DHT22;1466;48.778;9.166;2022-12-07T07:30:40;6.10;99.90
2913;DHT22;1466;48.778;9.166;2022-12-07T07:33:06;6.10;99.90
2913;DHT22;1466;48.778;9.166;2022-12-07T07:35:32;6.10;99.90
2913;DHT22;1466;48.778;9.166;2022-12-07T07:37:58;6.00;99.90
2913;DHT22;1466;48.778;9.166;2022-12-07T07:40:25;6.10;99.90
2913;DHT22;1466;48.778;9.166;2022-12-07T07:42:52;6.00;99.90
2913;DHT22;1466;48.778;9.166;2022-12-07T07:45:19;6.00;99.90
2913;DHT22;1466;48.778;9.166;2022-12-07T07:47:45;6.00;99.90
2913;DHT22;1466;48.778;9.166;2022-12-07T07:50:11;6.00;99.90
2913;DHT22;1466;48.778;9.166;2022-12-07T07:52:40;6.00;99.90
2913;DHT22;1466;48.778;9.166;2022-12-07T07:55:05;6.00;99.90
2913;DHT22;1466;48.778;9.166;2022-12-07T07:57:34;6.00;99.90
2913;DHT22;1466;48.778;9.166;2022-12-07T07:59:59;6.10;99.90
2913;DHT22;1466;48.778;9.166;2022-12-07T08:02:25;6.20;99.90
2913;DHT22;1466;48.778;9.166;2022-12-07T08:04:51;6.20;99.90
2913;DHT22;1466;48.778;9.166;2022-12-07T08:07:16;6.30;99.90
2913;DHT22;1466;48.778;9.166;2022-12-07T08:09:42;6.30;99.90
2913;DHT22;1466;48.778;9.166;2022-12-07T08:12:07;6.30;99.90
2913;DHT22;1466;48.778;9.166;2022-12-07T08:14:33;6.40;99.90
2913;DHT22;1466;48.778;9.166;2022-12-07T08:16:59;6.40;99.90
2913;DHT22;1466;48.778;9.166;2022-12-07T08:19:25;6.50;99.90
2913;DHT22;1466;48.778;9.166;2022-12-07T08:21:51;6.50;99.90
2913;DHT22;1466;48.778;9.166;2022-12-07T08:24:16;6.50;99.90
2913;DHT22;1466;48.778;9.166;2022-12-07T08:26:42;6.50;99.90
2913;DHT22;1466;48.778;9.166;2022-12-07T08:29:08;6.40;99.90
2913;DHT22;1466;48.778;9.166;2022-12-07T08:31:34;6.40;99.90
2913;DHT22;1466;48.778;9.166;2022-12-07T08:33:59;6.40;99.90
2913;DHT22;1466;48.778;9.166;2022-12-07T08:36:25;6.50;99.90
2913;DHT22;1466;48.778;9.166;2022-12-07T08:38:51;6.50;99.90
2913;DHT22;1466;48.778;9.166;2022-12-07T08:41:16;6.50;99.90
2913;DHT22;1466;48.778;9.166;2022-12-07T08:43:42;6.60;99.90
2913;DHT22;1466;48.778;9.166;2022-12-07T08:49:03;6.60;99.90
2913;DHT22;1466;48.778;9.166;2022-12-07T08:51:29;6.70;99.90
2913;DHT22;1466;48.778;9.166;2022-12-07T08:53:56;6.70;99.90
2913;DHT22;1466;48.778;9.166;2022-12-07T08:56:24;6.70;99.90
2913;DHT22;1466;48.778;9.166;2022-12-07T08:58:50;6.80;99.90
2913;DHT22;1466;48.778;9.166;2022-12-07T09:01:15;6.90;99.90
2913;DHT22;1466;48.778;9.166;2022-12-07T09:03:41;7.00;99.90
2913;DHT22;1466;48.778;9.166;2022-12-07T09:06:07;7.10;99.90
2913;DHT22;1466;48.778;9.166;2022-12-07T09:08:36;7.10;99.90
2913;DHT22;1466;48.778;9.166;2022-12-07T09:11:04;7.10;99.70
2913;DHT22;1466;48.778;9.166;2022-12-07T09:13:29;7.00;99.70
2913;DHT22;1466;48.778;9.166;2022-12-07T09:15:55;7.10;99.80
2913;DHT22;1466;48.778;9.166;2022-12-07T09:18:21;7.10;99.70
2913;DHT22;1466;48.778;9.166;2022-12-07T09:20:46;7.00;99.60
2913;DHT22;1466;48.778;9.166;2022-12-07T09:23:12;7.10;99.60
2913;DHT22;1466;48.778;9.166;2022-12-07T09:25:38;7.10;99.50
2913;DHT22;1466;48.778;9.166;2022-12-07T09:28:03;7.10;99.40
2913;DHT22;1466;48.778;9.166;2022-12-07T09:30:29;7.10;99.40
2913;DHT22;1466;48.778;9.166;2022-12-07T09:32:56;7.20;99.40
2913;DHT22;1466;48.778;9.166;2022-12-07T09:35:22;7.20;99.40
2913;DHT22;1466;48.778;9.166;2022-12-07T09:37:48;7.30;99.40
2913;DHT22;1466;48.778;9.166;2022-12-07T09:40:15;7.40;99.30
2913;DHT22;1466;48.778;9.166;2022-12-07T09:42:43;7.30;99.30
2913;DHT22;1466;48.778;9.166;2022-12-07T09:45:19;7.40;99.10
2913;DHT22;1466;48.778;9.166;2022-12-07T09:47:46;7.40;99.10
2913;DHT22;1466;48.778;9.166;2022-12-07T09:50:19;7.40;99.10
2913;DHT22;1466;48.778;9.166;2022-12-07T09:52:46;7.40;99.20
2913;DHT22;1466;48.778;9.166;2022-12-07T09:55:16;7.40;99.30
2913;DHT22;1466;48.778;9.166;2022-12-07T09:57:44;7.40;99.30
2913;DHT22;1466;48.778;9.166;2022-12-07T10:00:14;7.50;99.40
2913;DHT22;1466;48.778;9.166;2022-12-07T10:02:41;7.50;99.30
2913;DHT22;1466;48.778;9.166;2022-12-07T10:05:14;7.60;99.30
2913;DHT22;1466;48.778;9.166;2022-12-07T10:07:41;7.60;99.20
2913;DHT22;1466;48.778;9.166;2022-12-07T10:10:15;7.60;99.20
2913;DHT22;1466;48.778;9.166;2022-12-07T10:13:03;7.60;99.10
2913;DHT22;1466;48.778;9.166;2022-12-07T10:20:45;7.70;99.40
2913;DHT22;1466;48.778;9.166;2022-12-07T10:23:15;7.70;99.30
2913;DHT22;1466;48.778;9.166;2022-12-07T10:25:41;7.70;99.30
2913;DHT22;1466;48.778;9.166;2022-12-07T10:31:15;7.80;99.50
2913;DHT22;1466;48.778;9.166;2022-12-07T10:33:40;7.80;99.40
2913;DHT22;1466;48.778;9.166;2022-12-07T10:38:53;7.80;99.40
2913;DHT22;1466;48.778;9.166;2022-12-07T10:41:24;7.80;99.40
2913;DHT22;1466;48.778;9.166;2022-12-07T10:43:54;7.80;99.60
2913;DHT22;1466;48.778;9.166;2022-12-07T10:46:43;7.90;99.60
2913;DHT22;1466;48.778;9.166;2022-12-07T11:04:21;7.70;99.70
2913;DHT22;1466;48.778;9.166;2022-12-07T11:15:26;7.70;99.90
2913;DHT22;1466;48.778;9.166;2022-12-07T11:18:03;7.70;99.90
2913;DHT22;1466;48.778;9.166;2022-12-07T11:32:04;7.90;99.90
2913;DHT22;1466;48.778;9.166;2022-12-07T11:37:12;7.90;99.90
2913;DHT22;1466;48.778;9.166;2022-12-07T11:39:49;7.80;99.90
2913;DHT22;1466;48.778;9.166;2022-12-07T11:42:29;7.60;99.90
2913;DHT22;1466;48.778;9.166;2022-12-07T11:45:16;7.60;99.90
2913;DHT22;1466;48.778;9.166;2022-12-07T11:48:06;7.60;99.90
2913;DHT22;1466;48.778;9.166;2022-12-07T11:50:45;7.50;99.90
2913;DHT22;1466;48.778;9.166;2022-12-07T11:53:38;7.50;99.90
2913;DHT22;1466;48.778;9.166;2022-12-07T11:56:15;7.50;99.90
2913;DHT22;1466;48.778;9.166;2022-12-07T12:03:42;7.30;99.90
2913;DHT22;1466;48.778;9.166;2022-12-07T12:06:09;7.20;99.90
2913;DHT22;1466;48.778;9.166;2022-12-07T12:17:27;6.90;99.90
2913;DHT22;1466;48.778;9.166;2022-12-07T12:22:44;6.70;99.90
2913;DHT22;1466;48.778;9.166;2022-12-07T12:25:27;6.60;99.90
2913;DHT22;1466;48.778;9.166;2022-12-07T12:27:55;6.60;99.90
2913;DHT22;1466;48.778;9.166;2022-12-07T12:30:36;6.70;99.90
2913;DHT22;1466;48.778;9.166;2022-12-07T12:33:23;6.80;99.90
2913;DHT22;1466;48.778;9.166;2022-12-07T12:44:01;7.00;99.90
2913;DHT22;1466;48.778;9.166;2022-12-07T12:51:52;7.10;99.90
2913;DHT22;1466;48.778;9.166;2022-12-07T12:59:36;6.90;99.90
2913;DHT22;1466;48.778;9.166;2022-12-07T13:04:57;6.90;99.90
2913;DHT22;1466;48.778;9.166;2022-12-07T13:28:51;7.20;99.90
2913;DHT22;1466;48.778;9.166;2022-12-07T13:31:38;7.10;99.90
2913;DHT22;1466;48.778;9.166;2022-12-07T13:34:26;7.10;99.90
2913;DHT22;1466;48.778;9.166;2022-12-07T13:36:51;7.00;99.90
2913;DHT22;1466;48.778;9.166;2022-12-07T13:39:23;7.00;99.90
2913;DHT22;1466;48.778;9.166;2022-12-07T13:41:51;6.90;99.90
2913;DHT22;1466;48.778;9.166;2022-12-07T13:44:18;7.00;99.90
2913;DHT22;1466;48.778;9.166;2022-12-07T13:49:45;7.00;99.90
2913;DHT22;1466;48.778;9.166;2022-12-07T13:52:21;7.10;99.90
2913;DHT22;1466;48.778;9.166;2022-12-07T13:57:30;7.10;99.90
2913;DHT22;1466;48.778;9.166;2022-12-07T13:59:58;7.10;99.90
2913;DHT22;1466;48.778;9.166;2022-12-07T14:02:31;7.20;99.90
2913;DHT22;1466;48.778;9.166;2022-12-07T14:05:25;7.30;99.90
2913;DHT22;1466;48.778;9.166;2022-12-07T14:07:56;7.30;99.90
2913;DHT22;1466;48.778;9.166;2022-12-07T14:18:42;7.20;99.90
2913;DHT22;1466;48.778;9.166;2022-12-07T14:21:19;7.20;99.90
2913;DHT22;1466;48.778;9.166;2022-12-07T14:26:34;7.20;99.90
2913;DHT22;1466;48.778;9.166;2022-12-07T14:29:19;7.20;99.90
2913;DHT22;1466;48.778;9.166;2022-12-07T14:31:44;7.10;99.90
2913;DHT22;1466;48.778;9.166;2022-12-07T14:34:13;7.00;99.90
2913;DHT22;1466;48.778;9.166;2022-12-07T14:36:39;7.00;99.90
2913;DHT22;1466;48.778;9.166;2022-12-07T14:39:04;7.00;99.90
2913;DHT22;1466;48.778;9.166;2022-12-07T14:41:30;7.00;99.90
2913;DHT22;1466;48.778;9.166;2022-12-07T14:44:17;7.00;99.90
2913;DHT22;1466;48.778;9.166;2022-12-07T14:46:42;7.10;99.90
2913;DHT22;1466;48.778;9.166;2022-12-07T14:49:08;7.10;99.90
2913;DHT22;1466;48.778;9.166;2022-12-07T14:51:36;7.10;99.90
2913;DHT22;1466;48.778;9.166;2022-12-07T14:54:05;7.10;99.90
2913;DHT22;1466;48.778;9.166;2022-12-07T14:56:31;7.10;99.90
2913;DHT22;1466;48.778;9.166;2022-12-07T14:58:57;7.00;99.90
2913;DHT22;1466;48.778;9.166;2022-12-07T15:01:23;6.80;99.90
2913;DHT22;1466;48.778;9.166;2022-12-07T15:03:48;6.90;99.90
2913;DHT22;1466;48.778;9.166;2022-12-07T15:06:16;6.90;99.90
2913;DHT22;1466;48.778;9.166;2022-12-07T15:08:42;6.80;99.90
2913;DHT22;1466;48.778;9.166;2022-12-07T15:11:18;6.70;99.90
2913;DHT22;1466;48.778;9.166;2022-12-07T15:13:44;6.70;99.90
2913;DHT22;1466;48.778;9.166;2022-12-07T15:16:28;6.70;99.90
2913;DHT22;1466;48.778;9.166;2022-12-07T15:18:54;6.80;99.90
2913;DHT22;1466;48.778;9.166;2022-12-07T15:21:19;6.80;99.90
2913;DHT22;1466;48.778;9.166;2022-12-07T15:23:46;6.80;99.90
2913;DHT22;1466;48.778;9.166;2022-12-07T15:26:12;6.70;99.90
2913;DHT22;1466;48.778;9.166;2022-12-07T15:28:39;6.70;99.90
2913;DHT22;1466;48.778;9.166;2022-12-07T15:31:13;6.50;99.90
2913;DHT22;1466;48.778;9.166;2022-12-07T15:33:39;6.60;99.90
2913;DHT22;1466;48.778;9.166;2022-12-07T15:36:05;6.50;99.90
2913;DHT22;1466;48.778;9.166;2022-12-07T15:38:31;6.50;99.90
2913;DHT22;1466;48.778;9.166;2022-12-07T15:40:56;6.50;99.90
2913;DHT22;1466;48.778;9.166;2022-12-07T15:43:22;6.50;99.90
2913;DHT22;1466;48.778;9.166;2022-12-07T15:46:06;6.50;99.90
2913;DHT22;1466;48.778;9.166;2022-12-07T15:48:32;6.50;99.90
2913;DHT22;1466;48.778;9.166;2022-12-07T15:51:05;6.30;99.90
2913;DHT22;1466;48.778;9.166;2022-12-07T15:53:32;6.30;99.90
2913;DHT22;1466;48.778;9.166;2022-12-07T15:55:58;6.30;99.90
2913;DHT22;1466;48.778;9.166;2022-12-07T15:58:24;6.20;99.90
2913;DHT22;1466;48.778;9.166;2022-12-07T16:00:49;6.30;99.90
2913;DHT22;1466;48.778;9.166;2022-12-07T16:03:15;6.40;99.90
2913;DHT22;1466;48.778;9.166;2022-12-07T16:05:40;6.40;99.90
2913;DHT22;1466;48.778;9.166;2022-12-07T16:08:06;6.40;99.90
2913;DHT22;1466;48.778;9.166;2022-12-07T16:10:32;6.30;99.90
2913;DHT22;1466;48.778;9.166;2022-12-07T16:12:57;6.30;99.90
2913;DHT22;1466;48.778;9.166;2022-12-07T16:15:23;6.50;99.90
2913;DHT22;1466;48.778;9.166;2022-12-07T16:17:51;6.60;99.90
2913;DHT22;1466;48.778;9.166;2022-12-07T16:20:16;6.70;99.90
2913;DHT22;1466;48.778;9.166;2022-12-07T16:22:42;6.70;99.90
2913;DHT22;1466;48.778;9.166;2022-12-07T16:25:08;6.70;99.90
2913;DHT22;1466;48.778;9.166;2022-12-07T16:27:34;6.70;99.90
2913;DHT22;1466;48.778;9.166;2022-12-07T16:29:59;6.70;99.90
2913;DHT22;1466;48.778;9.166;2022-12-07T16:32:25;6.60;99.90
2913;DHT22;1466;48.778;9.166;2022-12-07T16:34:51;6.60;99.90
2913;DHT22;1466;48.778;9.166;2022-12-07T16:37:16;6.60;99.90
2913;DHT22;1466;48.778;9.166;2022-12-07T16:39:42;6.50;99.90
2913;DHT22;1466;48.778;9.166;2022-12-07T16:42:07;6.50;99.90
2913;DHT22;1466;48.778;9.166;2022-12-07T16:44:33;6.60;99.90
2913;DHT22;1466;48.778;9.166;2022-12-07T16:46:59;6.50;99.90
2913;DHT22;1466;48.778;9.166;2022-12-07T16:49:26;6.50;99.90
2913;DHT22;1466;48.778;9.166;2022-12-07T16:51:51;6.40;99.90
2913;DHT22;1466;48.778;9.166;2022-12-07T16:54:17;6.40;99.90
2913;DHT22;1466;48.778;9.166;2022-12-07T16:56:43;6.20;99.90
2913;DHT22;1466;48.778;9.166;2022-12-07T16:59:08;6.20;99.90
2913;DHT22;1466;48.778;9.166;2022-12-07T17:01:34;6.20;99.90
2913;DHT22;1466;48.778;9.166;2022-12-07T17:04:00;6.20;99.90
2913;DHT22;1466;48.778;9.166;2022-12-07T17:06:27;6.20;99.90
2913;DHT22;1466;48.778;9.166;2022-12-07T17:08:53;6.20;99.90
2913;DHT22;1466;48.778;9.166;2022-12-07T17:11:20;6.10;99.90
2913;DHT22;1466;48.778;9.166;2022-12-07T17:13:46;6.10;99.90
2913;DHT22;1466;48.778;9.166;2022-12-07T17:16:31;6.20;99.90
2913;DHT22;1466;48.778;9.166;2022-12-07T17:18:57;6.10;99.90
2913;DHT22;1466;48.778;9.166;2022-12-07T17:21:23;6.20;99.90
2913;DHT22;1466;48.778;9.166;2022-12-07T17:23:50;6.20;99.90
2913;DHT22;1466;48.778;9.166;2022-12-07T17:26:22;6.30;99.90
2913;DHT22;1466;48.778;9.166;2022-12-07T17:28:48;6.30;99.90
2913;DHT22;1466;48.778;9.166;2022-12-07T17:31:15;6.40;99.90
2913;DHT22;1466;48.778;9.166;2022-12-07T17:33:41;6.40;99.90
2913;DHT22;1466;48.778;9.166;2022-12-07T17:36:18;6.40;99.90
2913;DHT22;1466;48.778;9.166;2022-12-07T17:38:44;6.40;99.90
2913;DHT22;1466;48.778;9.166;2022-12-07T17:41:12;6.40;99.90
2913;DHT22;1466;48.778;9.166;2022-12-07T17:43:38;6.40;99.90
2913;DHT22;1466;48.778;9.166;2022-12-07T17:46:10;6.40;99.90
2913;DHT22;1466;48.778;9.166;2022-12-07T17:48:36;6.40;99.90
2913;DHT22;1466;48.778;9.166;2022-12-07T17:51:02;6.40;99.90
2913;DHT22;1466;48.778;9.166;2022-12-07T17:53:50;6.40;99.90
2913;DHT22;1466;48.778;9.166;2022-12-07T17:56:16;6.40;99.90
2913;DHT22;1466;48.778;9.166;2022-12-07T17:58:42;6.50;99.90
2913;DHT22;1466;48.778;9.166;2022-12-07T18:01:08;6.50;99.90
2913;DHT22;1466;48.778;9.166;2022-12-07T18:03:34;6.50;99.90
2913;DHT22;1466;48.778;9.166;2022-12-07T18:06:00;6.50;99.90
2913;DHT22;1466;48.778;9.166;2022-12-07T18:08:26;6.50;99.90
2913;DHT22;1466;48.778;9.166;2022-12-07T18:10:58;6.50;99.90
2913;DHT22;1466;48.778;9.166;2022-12-07T18:13:24;6.30;99.90
2913;DHT22;1466;48.778;9.166;2022-12-07T18:16:13;6.40;99.90
2913;DHT22;1466;48.778;9.166;2022-12-07T18:18:40;6.30;99.90
2913;DHT22;1466;48.778;9.166;2022-12-07T18:21:11;6.30;99.90
2913;DHT22;1466;48.778;9.166;2022-12-07T18:23:43;6.30;99.90
2913;DHT22;1466;48.778;9.166;2022-12-07T18:26:09;6.30;99.90
2913;DHT22;1466;48.778;9.166;2022-12-07T18:28:34;6.40;99.90
2913;DHT22;1466;48.778;9.166;2022-12-07T18:31:00;6.50;99.90
2913;DHT22;1466;48.778;9.166;2022-12-07T18:33:26;6.50;99.90
2913;DHT22;1466;48.778;9.166;2022-12-07T18:35:51;6.50;99.90
2913;DHT22;1466;48.778;9.166;2022-12-07T18:38:17;6.40;99.90
2913;DHT22;1466;48.778;9.166;2022-12-07T18:40:43;6.40;99.90
2913;DHT22;1466;48.778;9.166;2022-12-07T18:43:10;6.40;99.90
2913;DHT22;1466;48.778;9.166;2022-12-07T18:45:40;6.30;99.90
2913;DHT22;1466;48.778;9.166;2022-12-07T18:48:06;6.20;99.90
2913;DHT22;1466;48.778;9.166;2022-12-07T18:50:32;6.20;99.90
2913;DHT22;1466;48.778;9.166;2022-12-07T18:53:03;6.30;99.90
2913;DHT22;1466;48.778;9.166;2022-12-07T18:55:29;6.40;99.90
2913;DHT22;1466;48.778;9.166;2022-12-07T18:57:56;6.40;99.90
2913;DHT22;1466;48.778;9.166;2022-12-07T19:00:22;6.30;99.90
2913;DHT22;1466;48.778;9.166;2022-12-07T19:02:49;6.30;99.90
2913;DHT22;1466;48.778;9.166;2022-12-07T19:05:15;6.30;99.90
2913;DHT22;1466;48.778;9.166;2022-12-07T19:07:41;6.30;99.90